sensor_id;sensor_type;location;lat;lon;timestamp;P1;durP1;ratioP1;P2;durP2;ratioP2
5690;SDS011;2870;42.680;23.364;2024-03-02T00:00:48;34.57;;;19.50;;
5690;SDS011;2870;42.680;23.364;2024-03-02T00:03:14;37.23;;;20.20;;
5690;SDS011;2870;42.680;23.364;2024-03-02T00:05:41;37.27;;;21.30;;
5690;SDS011;2870;42.680;23.364;2024-03-02T00:08:09;40.70;;;20.20;;
5690;SDS011;2870;42.680;23.364;2024-03-02T00:10:36;40.17;;;20.93;;
5690;SDS011;2870;42.680;23.364;2024-03-02T00:13:05;34.67;;;20.03;;
5690;SDS011;2870;42.680;23.364;2024-03-02T00:15:43;35.33;;;19.03;;
5690;SDS011;2870;42.680;23.364;2024-03-02T00:18:13;36.83;;;19.80;;
5690;SDS011;2870;42.680;23.364;2024-03-02T00:20:41;32.43;;;19.17;;
5690;SDS011;2870;42.680;23.364;2024-03-02T00:23:08;40.07;;;19.30;;
5690;SDS011;2870;42.680;23.364;2024-03-02T00:25:39;37.63;;;20.80;;
5690;SDS011;2870;42.680;23.364;2024-03-02T00:28:14;40.27;;;19.90;;
5690;SDS011;2870;42.680;23.364;2024-03-02T00:30:56;39.03;;;21.37;;
5690;SDS011;2870;42.680;23.364;2024-03-02T00:33:26;35.43;;;19.30;;
5690;SDS011;2870;42.680;23.364;2024-03-02T00:35:54;33.50;;;18.50;;
5690;SDS011;2870;42.680;23.364;2024-03-02T00:38:21;35.77;;;19.60;;
5690;SDS011;2870;42.680;23.364;2024-03-02T00:40:48;34.43;;;19.87;;
5690;SDS011;2870;42.680;23.364;2024-03-02T00:43:38;36.30;;;20.20;;
5690;SDS011;2870;42.680;23.364;2024-03-02T00:46:09;34.93;;;19.20;;
5690;SDS011;2870;42.680;23.364;2024-03-02T00:48:44;28.57;;;16.90;;
5690;SDS011;2870;42.680;23.364;2024-03-02T00:51:22;37.13;;;19.10;;
5690;SDS011;2870;42.680;23.364;2024-03-02T00:53:52;28.13;;;17.27;;
5690;SDS011;2870;42.680;23.364;2024-03-02T00:56:21;43.03;;;17.83;;
5690;SDS011;2870;42.680;23.364;2024-03-02T00:58:49;31.30;;;19.50;;
5690;SDS011;2870;42.680;23.364;2024-03-02T01:01:16;29.60;;;17.30;;
5690;SDS011;2870;42.680;23.364;2024-03-02T01:03:42;31.90;;;17.80;;
5690;SDS011;2870;42.680;23.364;2024-03-02T01:06:09;35.17;;;18.20;;
5690;SDS011;2870;42.680;23.364;2024-03-02T01:08:36;31.93;;;17.83;;
5690;SDS011;2870;42.680;23.364;2024-03-02T01:11:04;32.20;;;19.27;;
5690;SDS011;2870;42.680;23.364;2024-03-02T01:13:31;37.67;;;18.80;;
5690;SDS011;2870;42.680;23.364;2024-03-02T01:15:58;33.87;;;18.77;;
5690;SDS011;2870;42.680;23.364;2024-03-02T01:18:25;32.73;;;18.27;;
5690;SDS011;2870;42.680;23.364;2024-03-02T01:20:52;34.10;;;19.67;;
5690;SDS011;2870;42.680;23.364;2024-03-02T01:23:21;31.30;;;17.40;;
5690;SDS011;2870;42.680;23.364;2024-03-02T01:25:47;41.80;;;18.40;;
5690;SDS011;2870;42.680;23.364;2024-03-02T01:28:16;32.00;;;18.37;;
5690;SDS011;2870;42.680;23.364;2024-03-02T01:30:42;31.97;;;17.50;;
5690;SDS011;2870;42.680;23.364;2024-03-02T01:33:09;29.53;;;18.23;;
5690;SDS011;2870;42.680;23.364;2024-03-02T01:35:36;32.33;;;17.80;;
5690;SDS011;2870;42.680;23.364;2024-03-02T01:38:03;31.77;;;17.30;;
5690;SDS011;2870;42.680;23.364;2024-03-02T01:40:31;39.93;;;19.60;;
5690;SDS011;2870;42.680;23.364;2024-03-02T01:42:58;34.53;;;19.07;;
5690;SDS011;2870;42.680;23.364;2024-03-02T01:45:26;38.90;;;20.70;;
5690;SDS011;2870;42.680;23.364;2024-03-02T01:47:53;36.87;;;20.33;;
5690;SDS011;2870;42.680;23.364;2024-03-02T01:50:24;38.00;;;20.87;;
5690;SDS011;2870;42.680;23.364;2024-03-02T01:52:52;32.67;;;18.83;;
5690;SDS011;2870;42.680;23.364;2024-03-02T01:55:19;32.00;;;18.97;;
5690;SDS011;2870;42.680;23.364;2024-03-02T01:57:46;41.57;;;19.97;;
5690;SDS011;2870;42.680;23.364;2024-03-02T02:00:14;105.90;;;65.47;;
5690;SDS011;2870;42.680;23.364;2024-03-02T02:02:43;44.53;;;23.03;;
5690;SDS011;2870;42.680;23.364;2024-03-02T02:05:10;35.00;;;18.53;;
5690;SDS011;2870;42.680;23.364;2024-03-02T02:07:36;37.97;;;21.20;;
5690;SDS011;2870;42.680;23.364;2024-03-02T02:10:03;37.60;;;20.67;;
5690;SDS011;2870;42.680;23.364;2024-03-02T02:12:31;43.73;;;21.10;;
5690;SDS011;2870;42.680;23.364;2024-03-02T02:14:58;52.53;;;21.23;;
5690;SDS011;2870;42.680;23.364;2024-03-02T02:17:25;37.60;;;21.60;;
5690;SDS011;2870;42.680;23.364;2024-03-02T02:19:53;42.10;;;21.70;;
5690;SDS011;2870;42.680;23.364;2024-03-02T02:22:21;34.43;;;21.77;;
5690;SDS011;2870;42.680;23.364;2024-03-02T02:24:48;39.40;;;20.57;;
5690;SDS011;2870;42.680;23.364;2024-03-02T02:27:15;43.80;;;21.27;;
5690;SDS011;2870;42.680;23.364;2024-03-02T02:29:41;40.90;;;21.50;;
5690;SDS011;2870;42.680;23.364;2024-03-02T02:32:08;37.97;;;20.57;;
5690;SDS011;2870;42.680;23.364;2024-03-02T02:34:35;38.13;;;20.97;;
5690;SDS011;2870;42.680;23.364;2024-03-02T02:37:01;36.50;;;20.50;;
5690;SDS011;2870;42.680;23.364;2024-03-02T02:39:29;42.17;;;21.93;;
5690;SDS011;2870;42.680;23.364;2024-03-02T02:41:56;41.47;;;21.70;;
5690;SDS011;2870;42.680;23.364;2024-03-02T02:44:23;39.77;;;20.20;;
5690;SDS011;2870;42.680;23.364;2024-03-02T02:46:50;43.23;;;20.67;;
5690;SDS011;2870;42.680;23.364;2024-03-02T02:49:17;37.17;;;19.60;;
5690;SDS011;2870;42.680;23.364;2024-03-02T02:51:43;39.87;;;21.07;;
5690;SDS011;2870;42.680;23.364;2024-03-02T02:54:10;41.13;;;21.50;;
5690;SDS011;2870;42.680;23.364;2024-03-02T02:56:38;35.37;;;20.57;;
5690;SDS011;2870;42.680;23.364;2024-03-02T02:59:05;37.97;;;20.20;;
5690;SDS011;2870;42.680;23.364;2024-03-02T03:04:51;40.60;;;20.40;;
5690;SDS011;2870;42.680;23.364;2024-03-02T03:07:17;34.90;;;20.37;;
5690;SDS011;2870;42.680;23.364;2024-03-02T03:09:44;38.30;;;22.00;;
5690;SDS011;2870;42.680;23.364;2024-03-02T03:12:12;46.87;;;22.70;;
5690;SDS011;2870;42.680;23.364;2024-03-02T03:14:40;35.27;;;20.70;;
5690;SDS011;2870;42.680;23.364;2024-03-02T03:17:07;40.20;;;21.50;;
5690;SDS011;2870;42.680;23.364;2024-03-02T03:19:33;38.10;;;21.10;;
5690;SDS011;2870;42.680;23.364;2024-03-02T03:22:01;38.33;;;21.87;;
5690;SDS011;2870;42.680;23.364;2024-03-02T03:24:28;39.60;;;20.90;;
5690;SDS011;2870;42.680;23.364;2024-03-02T03:26:55;45.03;;;21.70;;
5690;SDS011;2870;42.680;23.364;2024-03-02T03:29:23;39.03;;;21.70;;
5690;SDS011;2870;42.680;23.364;2024-03-02T03:31:50;48.43;;;23.43;;
5690;SDS011;2870;42.680;23.364;2024-03-02T03:34:16;40.20;;;22.30;;
5690;SDS011;2870;42.680;23.364;2024-03-02T03:36:43;39.57;;;22.10;;
5690;SDS011;2870;42.680;23.364;2024-03-02T03:39:10;42.53;;;25.00;;
5690;SDS011;2870;42.680;23.364;2024-03-02T03:41:36;42.57;;;21.43;;
5690;SDS011;2870;42.680;23.364;2024-03-02T03:44:03;43.07;;;21.97;;
5690;SDS011;2870;42.680;23.364;2024-03-02T03:46:32;41.90;;;21.60;;
5690;SDS011;2870;42.680;23.364;2024-03-02T03:48:58;41.93;;;22.30;;
5690;SDS011;2870;42.680;23.364;2024-03-02T03:51:25;45.70;;;21.40;;
5690;SDS011;2870;42.680;23.364;2024-03-02T03:53:52;32.80;;;19.10;;
5690;SDS011;2870;42.680;23.364;2024-03-02T03:56:18;41.07;;;21.67;;
5690;SDS011;2870;42.680;23.364;2024-03-02T03:58:45;37.47;;;22.60;;
5690;SDS011;2870;42.680;23.364;2024-03-02T04:01:12;39.90;;;19.33;;
5690;SDS011;2870;42.680;23.364;2024-03-02T04:03:40;38.43;;;20.90;;
5690;SDS011;2870;42.680;23.364;2024-03-02T04:06:06;31.90;;;18.17;;
5690;SDS011;2870;42.680;23.364;2024-03-02T04:08:33;38.67;;;21.03;;
5690;SDS011;2870;42.680;23.364;2024-03-02T04:11:00;44.07;;;20.47;;
5690;SDS011;2870;42.680;23.364;2024-03-02T04:13:27;35.10;;;20.27;;
5690;SDS011;2870;42.680;23.364;2024-03-02T04:15:54;35.00;;;20.47;;
5690;SDS011;2870;42.680;23.364;2024-03-02T04:18:21;43.67;;;22.40;;
5690;SDS011;2870;42.680;23.364;2024-03-02T04:20:49;39.23;;;21.40;;
5690;SDS011;2870;42.680;23.364;2024-03-02T04:23:16;42.20;;;22.10;;
5690;SDS011;2870;42.680;23.364;2024-03-02T04:25:42;35.27;;;19.57;;
5690;SDS011;2870;42.680;23.364;2024-03-02T04:28:09;36.63;;;20.83;;
5690;SDS011;2870;42.680;23.364;2024-03-02T04:30:37;36.40;;;21.20;;
5690;SDS011;2870;42.680;23.364;2024-03-02T04:33:04;39.77;;;20.93;;
5690;SDS011;2870;42.680;23.364;2024-03-02T04:35:32;34.93;;;19.00;;
5690;SDS011;2870;42.680;23.364;2024-03-02T04:38:00;38.03;;;20.37;;
5690;SDS011;2870;42.680;23.364;2024-03-02T04:40:27;45.83;;;22.83;;
5690;SDS011;2870;42.680;23.364;2024-03-02T04:42:54;38.07;;;21.80;;
5690;SDS011;2870;42.680;23.364;2024-03-02T04:45:20;47.43;;;23.20;;
5690;SDS011;2870;42.680;23.364;2024-03-02T04:47:47;43.47;;;20.97;;
5690;SDS011;2870;42.680;23.364;2024-03-02T04:50:14;44.90;;;22.27;;
5690;SDS011;2870;42.680;23.364;2024-03-02T04:52:41;37.50;;;22.20;;
5690;SDS011;2870;42.680;23.364;2024-03-02T04:55:09;37.73;;;20.87;;
5690;SDS011;2870;42.680;23.364;2024-03-02T04:57:44;41.37;;;21.63;;
5690;SDS011;2870;42.680;23.364;2024-03-02T05:00:13;42.00;;;22.00;;
5690;SDS011;2870;42.680;23.364;2024-03-02T05:02:40;40.97;;;21.63;;
5690;SDS011;2870;42.680;23.364;2024-03-02T05:05:06;46.60;;;24.07;;
5690;SDS011;2870;42.680;23.364;2024-03-02T05:07:33;44.70;;;23.30;;
5690;SDS011;2870;42.680;23.364;2024-03-02T05:10:00;50.03;;;22.03;;
5690;SDS011;2870;42.680;23.364;2024-03-02T05:12:28;38.23;;;19.97;;
5690;SDS011;2870;42.680;23.364;2024-03-02T05:15:21;44.30;;;20.87;;
5690;SDS011;2870;42.680;23.364;2024-03-02T05:17:48;43.90;;;23.37;;
5690;SDS011;2870;42.680;23.364;2024-03-02T05:20:15;50.20;;;23.37;;
5690;SDS011;2870;42.680;23.364;2024-03-02T05:22:42;49.37;;;22.30;;
5690;SDS011;2870;42.680;23.364;2024-03-02T05:25:08;49.37;;;23.73;;
5690;SDS011;2870;42.680;23.364;2024-03-02T05:27:37;41.80;;;22.77;;
5690;SDS011;2870;42.680;23.364;2024-03-02T05:30:04;43.73;;;22.93;;
5690;SDS011;2870;42.680;23.364;2024-03-02T05:32:32;50.73;;;22.60;;
5690;SDS011;2870;42.680;23.364;2024-03-02T05:34:59;50.97;;;23.07;;
5690;SDS011;2870;42.680;23.364;2024-03-02T05:37:26;52.33;;;23.50;;
5690;SDS011;2870;42.680;23.364;2024-03-02T05:39:53;46.53;;;24.07;;
5690;SDS011;2870;42.680;23.364;2024-03-02T05:42:20;52.63;;;24.00;;
5690;SDS011;2870;42.680;23.364;2024-03-02T05:44:48;43.87;;;20.67;;
5690;SDS011;2870;42.680;23.364;2024-03-02T05:47:14;49.87;;;22.30;;
5690;SDS011;2870;42.680;23.364;2024-03-02T05:49:42;45.27;;;23.20;;
5690;SDS011;2870;42.680;23.364;2024-03-02T05:52:09;45.43;;;21.30;;
5690;SDS011;2870;42.680;23.364;2024-03-02T05:54:36;45.80;;;24.70;;
5690;SDS011;2870;42.680;23.364;2024-03-02T05:57:03;48.23;;;23.40;;
5690;SDS011;2870;42.680;23.364;2024-03-02T05:59:53;51.83;;;24.10;;
5690;SDS011;2870;42.680;23.364;2024-03-02T06:02:19;50.53;;;25.00;;
5690;SDS011;2870;42.680;23.364;2024-03-02T06:04:46;44.27;;;24.30;;
5690;SDS011;2870;42.680;23.364;2024-03-02T06:07:13;43.57;;;22.23;;
5690;SDS011;2870;42.680;23.364;2024-03-02T06:09:40;47.30;;;23.43;;
5690;SDS011;2870;42.680;23.364;2024-03-02T06:12:07;48.50;;;25.17;;
5690;SDS011;2870;42.680;23.364;2024-03-02T06:14:34;48.73;;;24.87;;
5690;SDS011;2870;42.680;23.364;2024-03-02T06:17:02;58.30;;;24.07;;
5690;SDS011;2870;42.680;23.364;2024-03-02T06:19:29;49.83;;;23.80;;
5690;SDS011;2870;42.680;23.364;2024-03-02T06:21:56;52.20;;;25.10;;
5690;SDS011;2870;42.680;23.364;2024-03-02T06:24:23;45.53;;;22.27;;
5690;SDS011;2870;42.680;23.364;2024-03-02T06:26:51;47.13;;;22.63;;
5690;SDS011;2870;42.680;23.364;2024-03-02T06:29:18;48.67;;;23.63;;
5690;SDS011;2870;42.680;23.364;2024-03-02T06:31:44;44.63;;;22.13;;
5690;SDS011;2870;42.680;23.364;2024-03-02T06:34:12;48.07;;;21.93;;
5690;SDS011;2870;42.680;23.364;2024-03-02T06:36:39;56.90;;;25.00;;
5690;SDS011;2870;42.680;23.364;2024-03-02T06:39:07;52.07;;;23.07;;
5690;SDS011;2870;42.680;23.364;2024-03-02T06:41:35;49.10;;;25.37;;
5690;SDS011;2870;42.680;23.364;2024-03-02T06:44:02;51.53;;;23.67;;
5690;SDS011;2870;42.680;23.364;2024-03-02T06:46:29;54.77;;;24.60;;
5690;SDS011;2870;42.680;23.364;2024-03-02T06:48:55;53.70;;;25.77;;
5690;SDS011;2870;42.680;23.364;2024-03-02T06:51:23;53.80;;;26.53;;
5690;SDS011;2870;42.680;23.364;2024-03-02T06:53:50;53.00;;;23.80;;
5690;SDS011;2870;42.680;23.364;2024-03-02T06:56:17;51.37;;;25.93;;
5690;SDS011;2870;42.680;23.364;2024-03-02T06:58:43;47.77;;;25.83;;
5690;SDS011;2870;42.680;23.364;2024-03-02T07:01:10;49.97;;;26.10;;
5690;SDS011;2870;42.680;23.364;2024-03-02T07:03:38;61.77;;;27.20;;
5690;SDS011;2870;42.680;23.364;2024-03-02T07:06:05;53.83;;;24.70;;
5690;SDS011;2870;42.680;23.364;2024-03-02T07:08:33;52.93;;;24.03;;
5690;SDS011;2870;42.680;23.364;2024-03-02T07:11:00;47.80;;;24.43;;
5690;SDS011;2870;42.680;23.364;2024-03-02T07:13:27;56.00;;;24.90;;
5690;SDS011;2870;42.680;23.364;2024-03-02T07:15:53;50.57;;;22.83;;
5690;SDS011;2870;42.680;23.364;2024-03-02T07:18:49;52.00;;;22.73;;
5690;SDS011;2870;42.680;23.364;2024-03-02T07:21:17;49.40;;;23.27;;
5690;SDS011;2870;42.680;23.364;2024-03-02T07:23:45;51.33;;;23.33;;
5690;SDS011;2870;42.680;23.364;2024-03-02T07:26:12;44.63;;;22.17;;
5690;SDS011;2870;42.680;23.364;2024-03-02T07:28:40;45.63;;;21.97;;
5690;SDS011;2870;42.680;23.364;2024-03-02T07:31:07;48.57;;;24.30;;
5690;SDS011;2870;42.680;23.364;2024-03-02T07:33:35;45.63;;;21.90;;
5690;SDS011;2870;42.680;23.364;2024-03-02T07:36:02;48.50;;;24.80;;
5690;SDS011;2870;42.680;23.364;2024-03-02T07:38:28;49.07;;;23.50;;
5690;SDS011;2870;42.680;23.364;2024-03-02T07:40:58;50.83;;;23.03;;
5690;SDS011;2870;42.680;23.364;2024-03-02T07:43:25;51.90;;;24.23;;
5690;SDS011;2870;42.680;23.364;2024-03-02T07:45:52;43.47;;;21.40;;
5690;SDS011;2870;42.680;23.364;2024-03-02T07:48:19;44.17;;;22.07;;
5690;SDS011;2870;42.680;23.364;2024-03-02T07:50:45;39.90;;;21.23;;
5690;SDS011;2870;42.680;23.364;2024-03-02T07:53:12;50.07;;;23.30;;
5690;SDS011;2870;42.680;23.364;2024-03-02T07:55:39;49.40;;;23.20;;
5690;SDS011;2870;42.680;23.364;2024-03-02T07:58:07;49.63;;;22.70;;
5690;SDS011;2870;42.680;23.364;2024-03-02T08:00:36;43.20;;;21.57;;
5690;SDS011;2870;42.680;23.364;2024-03-02T08:03:05;44.37;;;21.53;;
5690;SDS011;2870;42.680;23.364;2024-03-02T08:05:31;42.30;;;21.57;;
5690;SDS011;2870;42.680;23.364;2024-03-02T08:07:58;43.03;;;21.10;;
5690;SDS011;2870;42.680;23.364;2024-03-02T08:10:25;44.13;;;23.90;;
5690;SDS011;2870;42.680;23.364;2024-03-02T08:12:51;51.70;;;22.90;;
5690;SDS011;2870;42.680;23.364;2024-03-02T08:15:19;40.40;;;22.10;;
5690;SDS011;2870;42.680;23.364;2024-03-02T08:17:46;44.77;;;22.90;;
5690;SDS011;2870;42.680;23.364;2024-03-02T08:20:14;48.37;;;21.47;;
5690;SDS011;2870;42.680;23.364;2024-03-02T08:22:41;53.40;;;23.20;;
5690;SDS011;2870;42.680;23.364;2024-03-02T08:25:08;50.80;;;23.10;;
5690;SDS011;2870;42.680;23.364;2024-03-02T08:27:35;48.27;;;24.10;;
5690;SDS011;2870;42.680;23.364;2024-03-02T08:30:02;45.83;;;22.17;;
5690;SDS011;2870;42.680;23.364;2024-03-02T08:32:33;49.97;;;23.00;;
5690;SDS011;2870;42.680;23.364;2024-03-02T08:34:59;46.67;;;22.90;;
5690;SDS011;2870;42.680;23.364;2024-03-02T08:37:26;47.93;;;22.20;;
5690;SDS011;2870;42.680;23.364;2024-03-02T08:39:53;49.63;;;24.97;;
5690;SDS011;2870;42.680;23.364;2024-03-02T08:42:20;52.20;;;24.07;;
5690;SDS011;2870;42.680;23.364;2024-03-02T08:44:47;46.17;;;24.10;;
5690;SDS011;2870;42.680;23.364;2024-03-02T08:47:14;52.40;;;25.13;;
5690;SDS011;2870;42.680;23.364;2024-03-02T08:49:42;50.13;;;23.63;;
5690;SDS011;2870;42.680;23.364;2024-03-02T08:52:09;49.87;;;23.97;;
5690;SDS011;2870;42.680;23.364;2024-03-02T08:54:36;57.00;;;25.50;;
5690;SDS011;2870;42.680;23.364;2024-03-02T08:57:03;49.00;;;23.70;;
5690;SDS011;2870;42.680;23.364;2024-03-02T08:59:29;53.20;;;25.73;;
5690;SDS011;2870;42.680;23.364;2024-03-02T09:01:56;50.83;;;26.20;;
5690;SDS011;2870;42.680;23.364;2024-03-02T09:04:24;59.03;;;23.80;;
5690;SDS011;2870;42.680;23.364;2024-03-02T09:06:52;39.43;;;21.50;;
5690;SDS011;2870;42.680;23.364;2024-03-02T09:09:19;43.70;;;22.17;;
5690;SDS011;2870;42.680;23.364;2024-03-02T09:11:46;43.63;;;21.90;;
5690;SDS011;2870;42.680;23.364;2024-03-02T09:14:13;39.83;;;21.50;;
5690;SDS011;2870;42.680;23.364;2024-03-02T09:16:40;37.20;;;19.93;;
5690;SDS011;2870;42.680;23.364;2024-03-02T09:19:07;38.33;;;20.10;;
5690;SDS011;2870;42.680;23.364;2024-03-02T09:21:34;42.93;;;20.47;;
5690;SDS011;2870;42.680;23.364;2024-03-02T09:24:02;47.10;;;21.47;;
5690;SDS011;2870;42.680;23.364;2024-03-02T09:26:31;42.87;;;22.23;;
5690;SDS011;2870;42.680;23.364;2024-03-02T09:28:58;33.97;;;19.93;;
5690;SDS011;2870;42.680;23.364;2024-03-02T09:31:25;39.33;;;21.57;;
5690;SDS011;2870;42.680;23.364;2024-03-02T09:33:51;38.47;;;21.73;;
5690;SDS011;2870;42.680;23.364;2024-03-02T09:36:18;39.73;;;18.67;;
5690;SDS011;2870;42.680;23.364;2024-03-02T09:38:45;43.63;;;21.63;;
5690;SDS011;2870;42.680;23.364;2024-03-02T09:41:13;37.10;;;19.60;;
5690;SDS011;2870;42.680;23.364;2024-03-02T09:43:40;38.80;;;20.50;;
5690;SDS011;2870;42.680;23.364;2024-03-02T09:46:07;42.50;;;21.87;;
5690;SDS011;2870;42.680;23.364;2024-03-02T09:48:35;39.43;;;21.30;;
5690;SDS011;2870;42.680;23.364;2024-03-02T09:51:02;45.57;;;23.73;;
5690;SDS011;2870;42.680;23.364;2024-03-02T09:53:31;42.00;;;20.57;;
5690;SDS011;2870;42.680;23.364;2024-03-02T09:55:59;37.87;;;21.00;;
5690;SDS011;2870;42.680;23.364;2024-03-02T09:58:27;40.80;;;20.80;;
5690;SDS011;2870;42.680;23.364;2024-03-02T10:00:55;42.00;;;22.03;;
5690;SDS011;2870;42.680;23.364;2024-03-02T10:03:22;38.07;;;20.33;;
5690;SDS011;2870;42.680;23.364;2024-03-02T10:05:49;46.83;;;21.67;;
5690;SDS011;2870;42.680;23.364;2024-03-02T10:08:17;39.03;;;21.97;;
5690;SDS011;2870;42.680;23.364;2024-03-02T10:10:43;43.80;;;20.87;;
5690;SDS011;2870;42.680;23.364;2024-03-02T10:13:11;35.33;;;19.83;;
5690;SDS011;2870;42.680;23.364;2024-03-02T10:15:40;41.20;;;20.70;;
5690;SDS011;2870;42.680;23.364;2024-03-02T10:18:08;39.50;;;21.77;;
5690;SDS011;2870;42.680;23.364;2024-03-02T10:20:36;37.70;;;21.83;;
5690;SDS011;2870;42.680;23.364;2024-03-02T10:23:09;41.40;;;21.70;;
5690;SDS011;2870;42.680;23.364;2024-03-02T10:25:37;42.33;;;22.80;;
5690;SDS011;2870;42.680;23.364;2024-03-02T10:28:04;42.33;;;22.80;;
5690;SDS011;2870;42.680;23.364;2024-03-02T10:30:31;37.60;;;20.47;;
5690;SDS011;2870;42.680;23.364;2024-03-02T10:33:00;38.60;;;19.50;;
5690;SDS011;2870;42.680;23.364;2024-03-02T10:35:28;34.67;;;19.07;;
5690;SDS011;2870;42.680;23.364;2024-03-02T10:37:56;41.27;;;20.70;;
5690;SDS011;2870;42.680;23.364;2024-03-02T10:40:25;33.43;;;16.77;;
5690;SDS011;2870;42.680;23.364;2024-03-02T10:42:53;37.23;;;18.70;;
5690;SDS011;2870;42.680;23.364;2024-03-02T10:45:20;37.70;;;19.57;;
5690;SDS011;2870;42.680;23.364;2024-03-02T10:47:48;38.77;;;19.80;;
5690;SDS011;2870;42.680;23.364;2024-03-02T10:50:17;33.50;;;17.50;;
5690;SDS011;2870;42.680;23.364;2024-03-02T10:52:44;32.30;;;18.67;;
5690;SDS011;2870;42.680;23.364;2024-03-02T10:55:11;33.80;;;18.80;;
5690;SDS011;2870;42.680;23.364;2024-03-02T10:57:41;38.70;;;20.50;;
5690;SDS011;2870;42.680;23.364;2024-03-02T11:00:12;36.60;;;19.80;;
5690;SDS011;2870;42.680;23.364;2024-03-02T11:02:46;39.43;;;20.50;;
5690;SDS011;2870;42.680;23.364;2024-03-02T11:05:20;35.47;;;20.20;;
5690;SDS011;2870;42.680;23.364;2024-03-02T11:07:53;37.53;;;21.43;;
5690;SDS011;2870;42.680;23.364;2024-03-02T11:10:23;32.90;;;19.27;;
5690;SDS011;2870;42.680;23.364;2024-03-02T11:12:52;36.63;;;19.50;;
5690;SDS011;2870;42.680;23.364;2024-03-02T11:15:27;32.57;;;19.30;;
5690;SDS011;2870;42.680;23.364;2024-03-02T11:17:54;32.30;;;17.40;;
5690;SDS011;2870;42.680;23.364;2024-03-02T11:20:23;36.70;;;18.50;;
5690;SDS011;2870;42.680;23.364;2024-03-02T11:22:50;34.83;;;18.73;;
5690;SDS011;2870;42.680;23.364;2024-03-02T11:25:24;28.10;;;16.97;;
5690;SDS011;2870;42.680;23.364;2024-03-02T11:28:04;33.60;;;20.73;;
5690;SDS011;2870;42.680;23.364;2024-03-02T11:30:49;32.60;;;18.70;;
5690;SDS011;2870;42.680;23.364;2024-03-02T11:33:25;35.47;;;19.67;;
5690;SDS011;2870;42.680;23.364;2024-03-02T11:35:56;34.47;;;17.70;;
5690;SDS011;2870;42.680;23.364;2024-03-02T11:38:32;29.27;;;17.00;;
5690;SDS011;2870;42.680;23.364;2024-03-02T11:41:01;38.10;;;20.30;;
5690;SDS011;2870;42.680;23.364;2024-03-02T11:43:29;35.60;;;17.20;;
5690;SDS011;2870;42.680;23.364;2024-03-02T11:45:59;37.03;;;19.73;;
5690;SDS011;2870;42.680;23.364;2024-03-02T11:48:29;31.53;;;18.60;;
5690;SDS011;2870;42.680;23.364;2024-03-02T11:50:59;30.40;;;17.60;;
5690;SDS011;2870;42.680;23.364;2024-03-02T11:53:27;34.23;;;17.10;;
5690;SDS011;2870;42.680;23.364;2024-03-02T11:55:55;28.80;;;16.10;;
5690;SDS011;2870;42.680;23.364;2024-03-02T11:58:22;28.40;;;15.17;;
5690;SDS011;2870;42.680;23.364;2024-03-02T12:00:51;29.37;;;18.87;;
5690;SDS011;2870;42.680;23.364;2024-03-02T12:03:18;25.73;;;15.87;;
5690;SDS011;2870;42.680;23.364;2024-03-02T12:05:49;32.03;;;17.80;;
5690;SDS011;2870;42.680;23.364;2024-03-02T12:08:17;26.37;;;17.17;;
5690;SDS011;2870;42.680;23.364;2024-03-02T12:10:55;27.60;;;17.97;;
5690;SDS011;2870;42.680;23.364;2024-03-02T12:13:22;33.00;;;16.87;;
5690;SDS011;2870;42.680;23.364;2024-03-02T12:15:52;25.03;;;14.20;;
5690;SDS011;2870;42.680;23.364;2024-03-02T12:18:20;25.30;;;16.57;;
5690;SDS011;2870;42.680;23.364;2024-03-02T12:20:48;26.67;;;16.37;;
5690;SDS011;2870;42.680;23.364;2024-03-02T12:23:18;24.93;;;15.07;;
5690;SDS011;2870;42.680;23.364;2024-03-02T12:25:45;27.57;;;15.63;;
5690;SDS011;2870;42.680;23.364;2024-03-02T12:28:12;27.17;;;17.37;;
5690;SDS011;2870;42.680;23.364;2024-03-02T12:30:39;35.83;;;17.90;;
5690;SDS011;2870;42.680;23.364;2024-03-02T12:33:06;26.37;;;16.67;;
5690;SDS011;2870;42.680;23.364;2024-03-02T12:35:33;30.77;;;16.87;;
5690;SDS011;2870;42.680;23.364;2024-03-02T12:37:59;29.33;;;16.60;;
5690;SDS011;2870;42.680;23.364;2024-03-02T12:40:27;31.37;;;16.90;;
5690;SDS011;2870;42.680;23.364;2024-03-02T12:42:54;25.80;;;15.97;;
5690;SDS011;2870;42.680;23.364;2024-03-02T12:45:21;26.63;;;17.10;;
5690;SDS011;2870;42.680;23.364;2024-03-02T12:47:50;26.17;;;15.70;;
5690;SDS011;2870;42.680;23.364;2024-03-02T12:50:17;24.47;;;16.40;;
5690;SDS011;2870;42.680;23.364;2024-03-02T12:52:50;27.30;;;15.93;;
5690;SDS011;2870;42.680;23.364;2024-03-02T12:55:19;23.73;;;15.00;;
5690;SDS011;2870;42.680;23.364;2024-03-02T12:57:49;24.00;;;14.43;;
5690;SDS011;2870;42.680;23.364;2024-03-02T13:00:17;30.60;;;16.83;;
5690;SDS011;2870;42.680;23.364;2024-03-02T13:02:45;27.83;;;17.50;;
5690;SDS011;2870;42.680;23.364;2024-03-02T13:05:12;28.47;;;17.10;;
5690;SDS011;2870;42.680;23.364;2024-03-02T13:07:39;22.73;;;15.73;;
5690;SDS011;2870;42.680;23.364;2024-03-02T13:10:07;23.50;;;16.33;;
5690;SDS011;2870;42.680;23.364;2024-03-02T13:12:36;26.47;;;16.07;;
5690;SDS011;2870;42.680;23.364;2024-03-02T13:15:05;30.20;;;16.63;;
5690;SDS011;2870;42.680;23.364;2024-03-02T13:17:34;26.00;;;17.33;;
5690;SDS011;2870;42.680;23.364;2024-03-02T13:20:01;28.43;;;17.87;;
5690;SDS011;2870;42.680;23.364;2024-03-02T13:22:29;27.50;;;16.50;;
5690;SDS011;2870;42.680;23.364;2024-03-02T13:24:56;27.20;;;17.10;;
5690;SDS011;2870;42.680;23.364;2024-03-02T13:27:24;31.37;;;17.57;;
5690;SDS011;2870;42.680;23.364;2024-03-02T13:29:51;31.90;;;18.47;;
5690;SDS011;2870;42.680;23.364;2024-03-02T13:32:19;31.63;;;16.90;;
5690;SDS011;2870;42.680;23.364;2024-03-02T13:34:49;31.00;;;18.00;;
5690;SDS011;2870;42.680;23.364;2024-03-02T13:37:16;27.20;;;15.77;;
5690;SDS011;2870;42.680;23.364;2024-03-02T13:39:42;30.33;;;17.27;;
5690;SDS011;2870;42.680;23.364;2024-03-02T13:42:10;26.40;;;16.67;;
5690;SDS011;2870;42.680;23.364;2024-03-02T13:44:39;28.63;;;17.07;;
5690;SDS011;2870;42.680;23.364;2024-03-02T13:47:07;27.90;;;16.30;;
5690;SDS011;2870;42.680;23.364;2024-03-02T13:49:35;27.37;;;16.77;;
5690;SDS011;2870;42.680;23.364;2024-03-02T13:52:03;23.63;;;14.27;;
5690;SDS011;2870;42.680;23.364;2024-03-02T13:54:39;29.13;;;15.30;;
5690;SDS011;2870;42.680;23.364;2024-03-02T13:57:07;25.40;;;16.07;;
5690;SDS011;2870;42.680;23.364;2024-03-02T13:59:34;22.83;;;14.60;;
5690;SDS011;2870;42.680;23.364;2024-03-02T14:02:01;22.33;;;14.73;;
5690;SDS011;2870;42.680;23.364;2024-03-02T14:04:29;25.50;;;15.90;;
5690;SDS011;2870;42.680;23.364;2024-03-02T14:06:57;25.33;;;16.00;;
5690;SDS011;2870;42.680;23.364;2024-03-02T14:09:24;24.67;;;15.70;;
5690;SDS011;2870;42.680;23.364;2024-03-02T14:11:51;27.90;;;15.80;;
5690;SDS011;2870;42.680;23.364;2024-03-02T14:14:17;26.17;;;15.73;;
5690;SDS011;2870;42.680;23.364;2024-03-02T14:16:44;29.80;;;16.50;;
5690;SDS011;2870;42.680;23.364;2024-03-02T14:19:11;31.47;;;16.90;;
5690;SDS011;2870;42.680;23.364;2024-03-02T14:21:38;24.50;;;15.30;;
5690;SDS011;2870;42.680;23.364;2024-03-02T14:24:06;25.60;;;16.10;;
5690;SDS011;2870;42.680;23.364;2024-03-02T14:26:33;27.57;;;17.63;;
5690;SDS011;2870;42.680;23.364;2024-03-02T14:29:01;37.50;;;21.57;;
5690;SDS011;2870;42.680;23.364;2024-03-02T14:31:28;37.33;;;20.20;;
5690;SDS011;2870;42.680;23.364;2024-03-02T14:33:56;37.87;;;20.57;;
5690;SDS011;2870;42.680;23.364;2024-03-02T14:36:22;27.60;;;18.60;;
5690;SDS011;2870;42.680;23.364;2024-03-02T14:38:49;34.17;;;20.50;;
5690;SDS011;2870;42.680;23.364;2024-03-02T14:41:17;32.03;;;19.77;;